sensor_id;sensor_type;location;lat;lon;timestamp;pressure;altitude;pressure_sealevel;temperature;humidity
83483;BME280;73420;32.678;-85.380;2024-02-23T00:00:22;97969.97;;;28.44;20.73
83483;BME280;73420;32.678;-85.380;2024-02-23T00:02:47;97959.22;;;28.64;20.57
83483;BME280;73420;32.678;-85.380;2024-02-23T00:05:13;97960.31;;;28.25;20.76
83483;BME280;73420;32.678;-85.380;2024-02-23T00:07:38;97967.97;;;28.71;20.62
83483;BME280;73420;32.678;-85.380;2024-02-23T00:10:03;97964.40;;;28.63;20.68
83483;BME280;73420;32.678;-85.380;2024-02-23T00:12:28;97955.95;;;28.46;20.81
83483;BME280;73420;32.678;-85.380;2024-02-23T00:14:54;97952.68;;;28.19;21.05
83483;BME280;73420;32.678;-85.380;2024-02-23T00:17:19;97952.50;;;28.07;21.19
83483;BME280;73420;32.678;-85.380;2024-02-23T00:19:46;97954.13;;;28.14;21.13
83483;BME280;73420;32.678;-85.380;2024-02-23T00:22:10;97956.32;;;27.55;21.52
83483;BME280;73420;32.678;-85.380;2024-02-23T00:24:35;97952.94;;;27.61;21.70
83483;BME280;73420;32.678;-85.380;2024-02-23T00:27:01;97945.65;;;27.80;21.55
83483;BME280;73420;32.678;-85.380;2024-02-23T00:29:30;97945.33;;;27.49;22.30
83483;BME280;73420;32.678;-85.380;2024-02-23T00:31:52;97943.62;;;27.05;22.37
83483;BME280;73420;32.678;-85.380;2024-02-23T00:34:17;97949.80;;;27.27;22.61
83483;BME280;73420;32.678;-85.380;2024-02-23T00:36:43;97956.42;;;27.11;22.60
83483;BME280;73420;32.678;-85.380;2024-02-23T00:39:08;97960.91;;;27.67;22.35
83483;BME280;73420;32.678;-85.380;2024-02-23T00:41:38;97964.61;;;27.70;22.13
83483;BME280;73420;32.678;-85.380;2024-02-23T00:43:59;97965.02;;;27.99;21.93
83483;BME280;73420;32.678;-85.380;2024-02-23T00:46:24;97959.15;;;27.35;22.56
83483;BME280;73420;32.678;-85.380;2024-02-23T00:48:49;97954.17;;;27.52;22.69
83483;BME280;73420;32.678;-85.380;2024-02-23T00:51:15;97942.51;;;27.57;22.70
83483;BME280;73420;32.678;-85.380;2024-02-23T00:53:40;97933.59;;;27.10;23.16
83483;BME280;73420;32.678;-85.380;2024-02-23T00:56:06;97927.98;;;26.39;23.90
83483;BME280;73420;32.678;-85.380;2024-02-23T00:58:31;97924.82;;;26.67;23.69
83483;BME280;73420;32.678;-85.380;2024-02-23T01:00:56;97935.14;;;26.76;23.73
83483;BME280;73420;32.678;-85.380;2024-02-23T01:03:21;97934.59;;;27.08;23.41
83483;BME280;73420;32.678;-85.380;2024-02-23T01:05:47;97931.60;;;26.84;23.42
83483;BME280;73420;32.678;-85.380;2024-02-23T01:08:12;97923.35;;;26.87;23.64
83483;BME280;73420;32.678;-85.380;2024-02-23T01:10:37;97916.51;;;27.06;23.53
83483;BME280;73420;32.678;-85.380;2024-02-23T01:13:03;97926.08;;;26.50;23.95
83483;BME280;73420;32.678;-85.380;2024-02-23T01:15:28;97922.09;;;27.37;23.61
83483;BME280;73420;32.678;-85.380;2024-02-23T01:17:53;97918.53;;;26.33;24.19
83483;BME280;73420;32.678;-85.380;2024-02-23T01:20:18;97912.02;;;26.58;24.27
83483;BME280;73420;32.678;-85.380;2024-02-23T01:22:44;97909.93;;;26.51;24.34
83483;BME280;73420;32.678;-85.380;2024-02-23T01:25:09;97914.81;;;26.57;24.37
83483;BME280;73420;32.678;-85.380;2024-02-23T01:27:34;97924.45;;;26.64;24.38
83483;BME280;73420;32.678;-85.380;2024-02-23T01:30:00;97923.25;;;26.69;24.56
83483;BME280;73420;32.678;-85.380;2024-02-23T01:32:25;97918.82;;;26.53;24.96
83483;BME280;73420;32.678;-85.380;2024-02-23T01:34:50;97915.93;;;26.34;25.02
83483;BME280;73420;32.678;-85.380;2024-02-23T01:37:16;97921.27;;;26.17;25.00
83483;BME280;73420;32.678;-85.380;2024-02-23T01:39:41;97930.36;;;26.75;24.70
83483;BME280;73420;32.678;-85.380;2024-02-23T01:42:07;97923.21;;;26.55;24.63
83483;BME280;73420;32.678;-85.380;2024-02-23T01:44:32;97921.46;;;26.82;24.64
83483;BME280;73420;32.678;-85.380;2024-02-23T01:46:57;97928.85;;;26.18;25.07
83483;BME280;73420;32.678;-85.380;2024-02-23T01:49:22;97925.30;;;26.26;25.16
83483;BME280;73420;32.678;-85.380;2024-02-23T01:51:48;97920.54;;;26.34;25.20
83483;BME280;73420;32.678;-85.380;2024-02-23T01:54:17;97927.34;;;26.23;25.34
83483;BME280;73420;32.678;-85.380;2024-02-23T01:56:38;97912.58;;;25.94;26.10
83483;BME280;73420;32.678;-85.380;2024-02-23T01:59:04;97911.52;;;25.64;26.34
83483;BME280;73420;32.678;-85.380;2024-02-23T02:01:30;97912.56;;;25.28;26.81
83483;BME280;73420;32.678;-85.380;2024-02-23T02:03:55;97908.36;;;25.82;26.32
83483;BME280;73420;32.678;-85.380;2024-02-23T02:06:23;97903.75;;;25.28;26.99
83483;BME280;73420;32.678;-85.380;2024-02-23T02:08:46;97912.87;;;24.91;27.46
83483;BME280;73420;32.678;-85.380;2024-02-23T02:11:12;97920.94;;;25.46;26.93
83483;BME280;73420;32.678;-85.380;2024-02-23T02:13:37;97914.53;;;25.51;26.77
83483;BME280;73420;32.678;-85.380;2024-02-23T02:16:03;97908.57;;;25.37;26.81
83483;BME280;73420;32.678;-85.380;2024-02-23T02:18:35;97904.73;;;25.46;26.98
83483;BME280;73420;32.678;-85.380;2024-02-23T02:20:55;97901.72;;;25.54;26.86
83483;BME280;73420;32.678;-85.380;2024-02-23T02:23:19;97909.85;;;25.87;26.62
83483;BME280;73420;32.678;-85.380;2024-02-23T02:25:44;97911.52;;;26.15;26.36
83483;BME280;73420;32.678;-85.380;2024-02-23T02:28:09;97913.22;;;25.76;26.57
83483;BME280;73420;32.678;-85.380;2024-02-23T02:30:35;97919.93;;;25.66;26.92
83483;BME280;73420;32.678;-85.380;2024-02-23T02:33:00;97916.07;;;25.83;26.77
83483;BME280;73420;32.678;-85.380;2024-02-23T02:35:25;97921.27;;;25.68;27.16
83483;BME280;73420;32.678;-85.380;2024-02-23T02:37:50;97917.99;;;25.20;27.18
83483;BME280;73420;32.678;-85.380;2024-02-23T02:40:16;97915.55;;;25.50;27.20
83483;BME280;73420;32.678;-85.380;2024-02-23T02:42:44;97913.60;;;25.57;27.13
83483;BME280;73420;32.678;-85.380;2024-02-23T02:45:08;97911.81;;;25.77;27.00
83483;BME280;73420;32.678;-85.380;2024-02-23T02:47:33;97912.58;;;25.75;26.68
83483;BME280;73420;32.678;-85.380;2024-02-23T02:49:58;97908.88;;;25.72;26.84
83483;BME280;73420;32.678;-85.380;2024-02-23T02:52:24;97897.70;;;25.98;26.82
83483;BME280;73420;32.678;-85.380;2024-02-23T02:54:50;97891.04;;;25.71;27.14
83483;BME280;73420;32.678;-85.380;2024-02-23T02:57:15;97882.23;;;25.83;27.05
83483;BME280;73420;32.678;-85.380;2024-02-23T02:59:40;97882.04;;;25.63;26.93
83483;BME280;73420;32.678;-85.380;2024-02-23T03:02:06;97875.55;;;26.18;26.63
83483;BME280;73420;32.678;-85.380;2024-02-23T03:04:31;97885.59;;;25.46;27.39
83483;BME280;73420;32.678;-85.380;2024-02-23T03:06:58;97894.26;;;25.37;27.50
83483;BME280;73420;32.678;-85.380;2024-02-23T03:09:22;97894.38;;;25.36;27.52
83483;BME280;73420;32.678;-85.380;2024-02-23T03:11:48;97886.85;;;25.22;27.71
83483;BME280;73420;32.678;-85.380;2024-02-23T03:14:13;97876.79;;;25.00;27.66
83483;BME280;73420;32.678;-85.380;2024-02-23T03:16:39;97879.16;;;24.74;28.27
83483;BME280;73420;32.678;-85.380;2024-02-23T03:19:10;97888.18;;;25.34;27.62
83483;BME280;73420;32.678;-85.380;2024-02-23T03:21:31;97887.21;;;25.55;27.45
83483;BME280;73420;32.678;-85.380;2024-02-23T03:23:56;97889.64;;;25.25;27.79
83483;BME280;73420;32.678;-85.380;2024-02-23T03:26:21;97889.28;;;25.57;27.43
83483;BME280;73420;32.678;-85.380;2024-02-23T03:28:46;97883.13;;;25.16;27.60
83483;BME280;73420;32.678;-85.380;2024-02-23T03:31:12;97894.07;;;25.45;27.60
83483;BME280;73420;32.678;-85.380;2024-02-23T03:33:37;97893.91;;;25.56;27.43
83483;BME280;73420;32.678;-85.380;2024-02-23T03:36:04;97907.16;;;25.68;27.34
83483;BME280;73420;32.678;-85.380;2024-02-23T03:38:28;97900.60;;;25.77;27.26
83483;BME280;73420;32.678;-85.380;2024-02-23T03:40:53;97892.95;;;25.79;27.44
83483;BME280;73420;32.678;-85.380;2024-02-23T03:43:20;97892.93;;;25.21;27.76
83483;BME280;73420;32.678;-85.380;2024-02-23T03:45:45;97890.51;;;25.28;27.35
83483;BME280;73420;32.678;-85.380;2024-02-23T03:48:11;97896.62;;;25.81;27.18
83483;BME280;73420;32.678;-85.380;2024-02-23T03:50:36;97889.59;;;25.86;27.13
83483;BME280;73420;32.678;-85.380;2024-02-23T03:53:03;97883.30;;;26.04;26.87
83483;BME280;73420;32.678;-85.380;2024-02-23T03:55:27;97886.60;;;25.73;26.85
83483;BME280;73420;32.678;-85.380;2024-02-23T03:57:52;97896.26;;;25.71;27.22
83483;BME280;73420;32.678;-85.380;2024-02-23T04:00:18;97887.40;;;25.55;27.55
83483;BME280;73420;32.678;-85.380;2024-02-23T04:02:43;97886.47;;;25.58;27.28
83483;BME280;73420;32.678;-85.380;2024-02-23T04:05:09;97865.35;;;25.52;27.35
83483;BME280;73420;32.678;-85.380;2024-02-23T04:07:37;97861.75;;;25.47;27.30
83483;BME280;73420;32.678;-85.380;2024-02-23T04:09:59;97864.11;;;25.36;27.30
83483;BME280;73420;32.678;-85.380;2024-02-23T04:12:25;97865.21;;;25.08;27.62
83483;BME280;73420;32.678;-85.380;2024-02-23T04:14:50;97863.67;;;25.33;27.40
83483;BME280;73420;32.678;-85.380;2024-02-23T04:17:15;97858.07;;;25.10;27.65
83483;BME280;73420;32.678;-85.380;2024-02-23T04:19:42;97847.42;;;25.28;27.42
83483;BME280;73420;32.678;-85.380;2024-02-23T04:22:07;97839.97;;;25.40;27.23
83483;BME280;73420;32.678;-85.380;2024-02-23T04:24:32;97841.06;;;24.86;27.79
83483;BME280;73420;32.678;-85.380;2024-02-23T04:26:57;97832.05;;;25.07;27.58
83483;BME280;73420;32.678;-85.380;2024-02-23T04:29:23;97828.18;;;25.54;27.52
83483;BME280;73420;32.678;-85.380;2024-02-23T04:31:49;97830.91;;;24.67;27.87
83483;BME280;73420;32.678;-85.380;2024-02-23T04:34:15;97833.87;;;24.85;27.70
83483;BME280;73420;32.678;-85.380;2024-02-23T04:36:39;97823.72;;;24.67;27.90
83483;BME280;73420;32.678;-85.380;2024-02-23T04:39:04;97815.54;;;25.02;27.67
83483;BME280;73420;32.678;-85.380;2024-02-23T04:41:29;97814.84;;;25.34;27.36
83483;BME280;73420;32.678;-85.380;2024-02-23T04:43:55;97817.37;;;25.35;27.57
83483;BME280;73420;32.678;-85.380;2024-02-23T04:46:20;97811.65;;;24.61;28.21
83483;BME280;73420;32.678;-85.380;2024-02-23T04:48:45;97814.66;;;25.00;28.00
83483;BME280;73420;32.678;-85.380;2024-02-23T04:51:11;97810.36;;;24.79;27.93
83483;BME280;73420;32.678;-85.380;2024-02-23T04:53:37;97807.16;;;24.94;28.05
83483;BME280;73420;32.678;-85.380;2024-02-23T04:56:03;97799.08;;;24.83;27.95
83483;BME280;73420;32.678;-85.380;2024-02-23T04:58:27;97799.10;;;24.47;28.06
83483;BME280;73420;32.678;-85.380;2024-02-23T05:00:52;97799.62;;;24.37;28.74
83483;BME280;73420;32.678;-85.380;2024-02-23T05:03:18;97794.57;;;24.57;28.59
83483;BME280;73420;32.678;-85.380;2024-02-23T05:05:43;97784.30;;;24.40;28.47
83483;BME280;73420;32.678;-85.380;2024-02-23T05:08:08;97774.20;;;24.49;28.67
83483;BME280;73420;32.678;-85.380;2024-02-23T05:10:33;97776.81;;;24.73;28.44
83483;BME280;73420;32.678;-85.380;2024-02-23T05:12:59;97773.02;;;24.86;28.27
83483;BME280;73420;32.678;-85.380;2024-02-23T05:15:24;97767.03;;;25.02;28.09
83483;BME280;73420;32.678;-85.380;2024-02-23T05:17:50;97764.30;;;24.65;28.59
83483;BME280;73420;32.678;-85.380;2024-02-23T05:20:16;97763.47;;;24.44;28.89
83483;BME280;73420;32.678;-85.380;2024-02-23T05:22:41;97757.98;;;24.12;29.55
83483;BME280;73420;32.678;-85.380;2024-02-23T05:25:07;97755.36;;;24.23;29.20
83483;BME280;73420;32.678;-85.380;2024-02-23T05:27:32;97752.84;;;24.77;28.58
83483;BME280;73420;32.678;-85.380;2024-02-23T05:29:58;97755.46;;;24.74;28.65
83483;BME280;73420;32.678;-85.380;2024-02-23T05:32:23;97747.26;;;24.59;28.75
83483;BME280;73420;32.678;-85.380;2024-02-23T05:34:48;97747.63;;;24.43;28.97
83483;BME280;73420;32.678;-85.380;2024-02-23T05:37:14;97746.74;;;24.56;28.59
83483;BME280;73420;32.678;-85.380;2024-02-23T05:39:39;97746.38;;;24.87;28.38
83483;BME280;73420;32.678;-85.380;2024-02-23T05:42:05;97742.68;;;24.40;29.06
83483;BME280;73420;32.678;-85.380;2024-02-23T05:44:30;97738.09;;;24.62;28.79
83483;BME280;73420;32.678;-85.380;2024-02-23T05:46:56;97733.06;;;25.00;28.41
83483;BME280;73420;32.678;-85.380;2024-02-23T05:49:22;97725.27;;;25.01;28.32
83483;BME280;73420;32.678;-85.380;2024-02-23T05:51:47;97710.70;;;25.22;28.15
83483;BME280;73420;32.678;-85.380;2024-02-23T05:54:12;97717.30;;;25.05;28.37
83483;BME280;73420;32.678;-85.380;2024-02-23T05:56:38;97720.14;;;25.07;28.34
83483;BME280;73420;32.678;-85.380;2024-02-23T05:59:03;97717.63;;;24.81;28.73
83483;BME280;73420;32.678;-85.380;2024-02-23T06:01:29;97709.17;;;25.14;28.34
83483;BME280;73420;32.678;-85.380;2024-02-23T06:03:54;97711.36;;;24.49;28.89
83483;BME280;73420;32.678;-85.380;2024-02-23T06:06:19;97710.55;;;24.66;28.75
83483;BME280;73420;32.678;-85.380;2024-02-23T06:08:50;97714.82;;;25.00;28.68
83483;BME280;73420;32.678;-85.380;2024-02-23T06:11:10;97710.53;;;25.20;28.20
83483;BME280;73420;32.678;-85.380;2024-02-23T06:13:36;97702.20;;;25.38;28.20
83483;BME280;73420;32.678;-85.380;2024-02-23T06:16:01;97719.73;;;24.74;28.76
83483;BME280;73420;32.678;-85.380;2024-02-23T06:18:28;97718.98;;;24.53;29.23
83483;BME280;73420;32.678;-85.380;2024-02-23T06:20:53;97719.04;;;24.71;29.10
83483;BME280;73420;32.678;-85.380;2024-02-23T06:23:18;97717.14;;;24.75;29.06
83483;BME280;73420;32.678;-85.380;2024-02-23T06:25:43;97707.16;;;25.02;28.84
83483;BME280;73420;32.678;-85.380;2024-02-23T06:28:08;97695.51;;;25.20;28.63
83483;BME280;73420;32.678;-85.380;2024-02-23T06:30:34;97685.48;;;24.83;28.82
83483;BME280;73420;32.678;-85.380;2024-02-23T06:33:03;97690.66;;;25.13;28.74
83483;BME280;73420;32.678;-85.380;2024-02-23T06:35:25;97679.04;;;25.03;28.92
83483;BME280;73420;32.678;-85.380;2024-02-23T06:37:51;97679.68;;;25.26;28.68
83483;BME280;73420;32.678;-85.380;2024-02-23T06:40:16;97678.28;;;24.64;28.93
83483;BME280;73420;32.678;-85.380;2024-02-23T06:42:42;97677.18;;;25.12;28.96
83483;BME280;73420;32.678;-85.380;2024-02-23T06:45:08;97669.90;;;25.05;28.70
83483;BME280;73420;32.678;-85.380;2024-02-23T06:47:33;97669.47;;;24.59;30.12
83483;BME280;73420;32.678;-85.380;2024-02-23T06:49:59;97672.26;;;25.03;30.03
83483;BME280;73420;32.678;-85.380;2024-02-23T06:52:24;97675.86;;;25.01;29.87
83483;BME280;73420;32.678;-85.380;2024-02-23T06:54:49;97660.28;;;24.63;30.21
83483;BME280;73420;32.678;-85.380;2024-02-23T06:57:18;97653.81;;;24.62;30.14
83483;BME280;73420;32.678;-85.380;2024-02-23T06:59:40;97648.05;;;25.02;29.79
83483;BME280;73420;32.678;-85.380;2024-02-23T07:02:06;97640.54;;;24.96;29.85
83483;BME280;73420;32.678;-85.380;2024-02-23T07:04:32;97639.16;;;24.80;29.77
83483;BME280;73420;32.678;-85.380;2024-02-23T07:06:57;97632.82;;;25.13;29.67
83483;BME280;73420;32.678;-85.380;2024-02-23T07:09:23;97631.68;;;25.04;29.79
83483;BME280;73420;32.678;-85.380;2024-02-23T07:11:48;97635.62;;;24.14;31.12
83483;BME280;73420;32.678;-85.380;2024-02-23T07:14:13;97623.67;;;24.26;30.95
83483;BME280;73420;32.678;-85.380;2024-02-23T07:16:38;97619.04;;;24.43;30.66
83483;BME280;73420;32.678;-85.380;2024-02-23T07:19:04;97616.68;;;24.14;31.06
83483;BME280;73420;32.678;-85.380;2024-02-23T07:21:30;97611.88;;;24.14;31.03
83483;BME280;73420;32.678;-85.380;2024-02-23T07:23:55;97610.00;;;24.67;30.52
83483;BME280;73420;32.678;-85.380;2024-02-23T07:26:20;97608.07;;;24.92;30.59
83483;BME280;73420;32.678;-85.380;2024-02-23T07:28:46;97613.37;;;24.21;31.24
83483;BME280;73420;32.678;-85.380;2024-02-23T07:31:11;97617.61;;;24.05;31.47
83483;BME280;73420;32.678;-85.380;2024-02-23T07:33:38;97612.77;;;24.15;31.44
83483;BME280;73420;32.678;-85.380;2024-02-23T07:36:03;97614.60;;;24.74;31.08
83483;BME280;73420;32.678;-85.380;2024-02-23T07:38:28;97611.22;;;24.67;30.93
83483;BME280;73420;32.678;-85.380;2024-02-23T07:40:53;97610.48;;;24.45;31.39
83483;BME280;73420;32.678;-85.380;2024-02-23T07:43:19;97604.18;;;24.60;31.25
83483;BME280;73420;32.678;-85.380;2024-02-23T07:45:47;97603.70;;;24.27;31.71
83483;BME280;73420;32.678;-85.380;2024-02-23T07:48:09;97599.11;;;24.32;31.67
83483;BME280;73420;32.678;-85.380;2024-02-23T07:50:35;97594.83;;;24.50;31.56
83483;BME280;73420;32.678;-85.380;2024-02-23T07:53:00;97585.34;;;24.54;31.71
83483;BME280;73420;32.678;-85.380;2024-02-23T07:55:25;97581.90;;;24.34;31.79
83483;BME280;73420;32.678;-85.380;2024-02-23T07:57:51;97576.31;;;23.91;32.12
83483;BME280;73420;32.678;-85.380;2024-02-23T08:00:16;97568.76;;;24.70;32.13
83483;BME280;73420;32.678;-85.380;2024-02-23T08:02:41;97561.78;;;24.62;32.00
83483;BME280;73420;32.678;-85.380;2024-02-23T08:05:07;97558.07;;;24.49;32.24
83483;BME280;73420;32.678;-85.380;2024-02-23T08:07:32;97563.31;;;24.56;32.47
83483;BME280;73420;32.678;-85.380;2024-02-23T08:09:57;97560.97;;;24.20;32.70
83483;BME280;73420;32.678;-85.380;2024-02-23T08:12:22;97558.72;;;23.98;32.75
83483;BME280;73420;32.678;-85.380;2024-02-23T08:14:47;97562.57;;;24.18;32.81
83483;BME280;73420;32.678;-85.380;2024-02-23T08:17:12;97551.49;;;23.69;33.44
83483;BME280;73420;32.678;-85.380;2024-02-23T08:19:38;97546.50;;;23.89;33.55
83483;BME280;73420;32.678;-85.380;2024-02-23T08:22:05;97551.37;;;24.04;33.33
83483;BME280;73420;32.678;-85.380;2024-02-23T08:24:29;97551.23;;;23.89;33.89
83483;BME280;73420;32.678;-85.380;2024-02-23T08:26:54;97550.95;;;23.29;34.78
83483;BME280;73420;32.678;-85.380;2024-02-23T08:29:19;97545.45;;;24.04;33.84
83483;BME280;73420;32.678;-85.380;2024-02-23T08:31:45;97535.20;;;24.31;32.92
83483;BME280;73420;32.678;-85.380;2024-02-23T08:34:10;97536.99;;;24.58;33.13
83483;BME280;73420;32.678;-85.380;2024-02-23T08:36:35;97535.44;;;23.80;33.86
83483;BME280;73420;32.678;-85.380;2024-02-23T08:39:01;97530.12;;;24.36;32.89
83483;BME280;73420;32.678;-85.380;2024-02-23T08:41:26;97521.28;;;24.22;33.07
83483;BME280;73420;32.678;-85.380;2024-02-23T08:43:51;97535.49;;;23.86;33.91
83483;BME280;73420;32.678;-85.380;2024-02-23T08:46:20;97528.75;;;23.91;33.55
83483;BME280;73420;32.678;-85.380;2024-02-23T08:48:43;97517.29;;;24.69;32.80
83483;BME280;73420;32.678;-85.380;2024-02-23T08:51:08;97522.40;;;24.27;33.00
83483;BME280;73420;32.678;-85.380;2024-02-23T08:53:33;97514.21;;;24.47;32.77
83483;BME280;73420;32.678;-85.380;2024-02-23T08:55:59;97503.38;;;24.94;32.41
83483;BME280;73420;32.678;-85.380;2024-02-23T08:58:24;97508.66;;;24.59;32.59
83483;BME280;73420;32.678;-85.380;2024-02-23T09:00:49;97503.11;;;25.23;31.83
83483;BME280;73420;32.678;-85.380;2024-02-23T09:03:15;97512.49;;;24.52;32.67
83483;BME280;73420;32.678;-85.380;2024-02-23T09:05:40;97514.12;;;24.82;32.60
83483;BME280;73420;32.678;-85.380;2024-02-23T09:08:06;97511.78;;;24.38;32.56
83483;BME280;73420;32.678;-85.380;2024-02-23T09:10:32;97503.13;;;24.67;32.49
83483;BME280;73420;32.678;-85.380;2024-02-23T09:12:55;97503.00;;;24.03;33.27
83483;BME280;73420;32.678;-85.380;2024-02-23T09:15:21;97498.34;;;23.47;34.07
83483;BME280;73420;32.678;-85.380;2024-02-23T09:17:46;97488.24;;;24.06;33.28
83483;BME280;73420;32.678;-85.380;2024-02-23T09:20:12;97493.76;;;24.31;33.01
83483;BME280;73420;32.678;-85.380;2024-02-23T09:22:39;97493.81;;;24.27;33.37
83483;BME280;73420;32.678;-85.380;2024-02-23T09:25:03;97494.96;;;24.08;33.65
83483;BME280;73420;32.678;-85.380;2024-02-23T09:27:28;97490.08;;;23.62;34.26
83483;BME280;73420;32.678;-85.380;2024-02-23T09:29:54;97503.98;;;23.78;34.44
83483;BME280;73420;32.678;-85.380;2024-02-23T09:32:19;97498.93;;;23.65;35.79
83483;BME280;73420;32.678;-85.380;2024-02-23T09:34:48;97493.03;;;23.82;34.94
83483;BME280;73420;32.678;-85.380;2024-02-23T09:37:10;97487.84;;;23.41;35.40
83483;BME280;73420;32.678;-85.380;2024-02-23T09:39:35;97484.57;;;23.60;34.79
83483;BME280;73420;32.678;-85.380;2024-02-23T09:42:01;97481.46;;;23.96;34.20
83483;BME280;73420;32.678;-85.380;2024-02-23T09:44:32;97484.29;;;23.65;34.48
83483;BME280;73420;32.678;-85.380;2024-02-23T09:46:53;97479.35;;;23.46;34.77
83483;BME280;73420;32.678;-85.380;2024-02-23T09:49:17;97475.95;;;23.67;34.78
83483;BME280;73420;32.678;-85.380;2024-02-23T09:51:43;97472.28;;;24.00;34.34
83483;BME280;73420;32.678;-85.380;2024-02-23T09:54:08;97471.79;;;24.19;34.09
83483;BME280;73420;32.678;-85.380;2024-02-23T09:56:33;97475.06;;;23.92;34.10
83483;BME280;73420;32.678;-85.380;2024-02-23T09:59:00;97477.78;;;24.32;33.89
83483;BME280;73420;32.678;-85.380;2024-02-23T10:01:27;97477.29;;;23.80;33.98
83483;BME280;73420;32.678;-85.380;2024-02-23T10:03:49;97476.12;;;23.88;34.13
83483;BME280;73420;32.678;-85.380;2024-02-23T10:06:14;97472.89;;;24.86;33.10
83483;BME280;73420;32.678;-85.380;2024-02-23T10:08:40;97471.73;;;24.53;33.59
83483;BME280;73420;32.678;-85.380;2024-02-23T10:11:06;97468.90;;;24.05;33.94
83483;BME280;73420;32.678;-85.380;2024-02-23T10:13:31;97474.00;;;24.27;33.36
83483;BME280;73420;32.678;-85.380;2024-02-23T10:15:56;97463.38;;;24.17;34.01
83483;BME280;73420;32.678;-85.380;2024-02-23T10:18:21;97453.54;;;24.11;33.55
83483;BME280;73420;32.678;-85.380;2024-02-23T10:20:47;97460.09;;;24.74;33.36
83483;BME280;73420;32.678;-85.380;2024-02-23T10:23:13;97450.44;;;23.65;34.90
83483;BME280;73420;32.678;-85.380;2024-02-23T10:25:38;97449.82;;;23.36;34.67
83483;BME280;73420;32.678;-85.380;2024-02-23T10:28:03;97450.86;;;24.30;34.10
83483;BME280;73420;32.678;-85.380;2024-02-23T10:30:28;97449.96;;;23.55;34.69
83483;BME280;73420;32.678;-85.380;2024-02-23T10:32:56;97454.88;;;23.43;35.56
83483;BME280;73420;32.678;-85.380;2024-02-23T10:35:20;97461.90;;;22.23;40.75
83483;BME280;73420;32.678;-85.380;2024-02-23T10:37:47;97457.12;;;21.99;41.96
83483;BME280;73420;32.678;-85.380;2024-02-23T10:40:12;97459.39;;;21.91;42.92
83483;BME280;73420;32.678;-85.380;2024-02-23T10:42:36;97452.47;;;21.48;42.88
83483;BME280;73420;32.678;-85.380;2024-02-23T10:45:01;97454.68;;;22.13;43.49
83483;BME280;73420;32.678;-85.380;2024-02-23T10:47:26;97471.31;;;21.62;44.98
83483;BME280;73420;32.678;-85.380;2024-02-23T10:49:51;97460.87;;;21.32;47.17
83483;BME280;73420;32.678;-85.380;2024-02-23T10:52:17;97472.91;;;21.83;46.61
83483;BME280;73420;32.678;-85.380;2024-02-23T10:54:42;97535.53;;;21.10;45.90
83483;BME280;73420;32.678;-85.380;2024-02-23T10:57:08;97520.60;;;19.89;46.97
83483;BME280;73420;32.678;-85.380;2024-02-23T10:59:33;97553.60;;;18.97;49.07
83483;BME280;73420;32.678;-85.380;2024-02-23T11:01:59;97574.98;;;19.53;48.51
83483;BME280;73420;32.678;-85.380;2024-02-23T11:04:25;97567.37;;;19.69;49.23
83483;BME280;73420;32.678;-85.380;2024-02-23T11:06:50;97550.28;;;20.30;49.88
83483;BME280;73420;32.678;-85.380;2024-02-23T11:09:14;97544.35;;;20.36;48.28
83483;BME280;73420;32.678;-85.380;2024-02-23T11:11:52;97538.00;;;20.44;47.35
83483;BME280;73420;32.678;-85.380;2024-02-23T11:14:08;97524.38;;;20.78;47.34
83483;BME280;73420;32.678;-85.380;2024-02-23T11:16:32;97518.95;;;20.91;46.56
83483;BME280;73420;32.678;-85.380;2024-02-23T11:19:03;97520.62;;;20.44;47.22
83483;BME280;73420;32.678;-85.380;2024-02-23T11:21:22;97516.91;;;21.03;45.04
83483;BME280;73420;32.678;-85.380;2024-02-23T11:23:51;97518.24;;;21.01;45.79
83483;BME280;73420;32.678;-85.380;2024-02-23T11:26:13;97524.32;;;20.57;45.33
83483;BME280;73420;32.678;-85.380;2024-02-23T11:28:43;97520.47;;;21.19;44.91
83483;BME280;73420;32.678;-85.380;2024-02-23T11:31:12;97526.85;;;20.95;44.91
83483;BME280;73420;32.678;-85.380;2024-02-23T11:33:30;97527.13;;;21.32;43.89
83483;BME280;73420;32.678;-85.380;2024-02-23T11:36:06;97528.55;;;21.23;44.58
83483;BME280;73420;32.678;-85.380;2024-02-23T11:38:21;97528.65;;;20.96;44.59
83483;BME280;73420;32.678;-85.380;2024-02-23T11:40:46;97530.81;;;20.87;44.66
83483;BME280;73420;32.678;-85.380;2024-02-23T11:43:11;97535.52;;;21.08;43.49
83483;BME280;73420;32.678;-85.380;2024-02-23T11:45:36;97534.05;;;21.48;43.62
83483;BME280;73420;32.678;-85.380;2024-02-23T11:48:07;97535.00;;;21.32;42.60
83483;BME280;73420;32.678;-85.380;2024-02-23T11:50:27;97534.07;;;21.77;42.07
83483;BME280;73420;32.678;-85.380;2024-02-23T11:52:53;97534.68;;;21.86;42.15
83483;BME280;73420;32.678;-85.380;2024-02-23T11:55:19;97537.70;;;21.65;42.50
83483;BME280;73420;32.678;-85.380;2024-02-23T11:57:44;97541.90;;;21.91;41.21
83483;BME280;73420;32.678;-85.380;2024-02-23T12:00:10;97543.42;;;21.85;41.65
83483;BME280;73420;32.678;-85.380;2024-02-23T12:02:35;97542.76;;;21.94;41.73
83483;BME280;73420;32.678;-85.380;2024-02-23T12:05:00;97549.60;;;21.43;41.88
83483;BME280;73420;32.678;-85.380;2024-02-23T12:07:26;97548.22;;;21.74;41.42
83483;BME280;73420;32.678;-85.380;2024-02-23T12:09:51;97549.54;;;21.43;40.70
83483;BME280;73420;32.678;-85.380;2024-02-23T12:12:17;97550.87;;;21.48;41.58
83483;BME280;73420;32.678;-85.380;2024-02-23T12:14:42;97551.35;;;21.63;41.57
83483;BME280;73420;32.678;-85.380;2024-02-23T12:17:08;97553.73;;;21.53;40.94
83483;BME280;73420;32.678;-85.380;2024-02-23T12:19:33;97557.51;;;21.64;40.95
83483;BME280;73420;32.678;-85.380;2024-02-23T12:22:00;97558.21;;;21.63;40.78
83483;BME280;73420;32.678;-85.380;2024-02-23T12:24:26;97560.86;;;21.60;39.12
83483;BME280;73420;32.678;-85.380;2024-02-23T12:26:54;97561.75;;;22.17;39.39
83483;BME280;73420;32.678;-85.380;2024-02-23T12:29:15;97564.75;;;22.07;39.12